Time;durP1;ratioP1;P1;durP2;ratioP2;P2;SDS_P1;SDS_P2;PMS_P1;PMS_P2;Temp;Humidity;BMP_temperature;BMP_pressure;BME280_temperature;BME280_humidity;BME280_pressure;Samples;Min_cycle;Max_cycle;Signal;HPM_P1;HPM_P2
2021/04/16 00:01:05;;;;;;;6.47;5.70;;;2.30;99.90;;;;;;5021596;28;20201;-76
2021/04/16 00:03:31;;;;;;;7.97;5.70;;;2.30;99.90;;;;;;5030915;28;20200;-76
2021/04/16 00:05:58;;;;;;;6.27;5.60;;;2.30;99.90;;;;;;5023085;28;20259;-80
2021/04/16 00:08:30;;;;;;;6.57;5.00;;;2.30;99.90;;;;;;5023333;28;20225;-72
2021/04/16 00:10:59;;;;;;;8.63;4.93;;;2.30;99.90;;;;;;5011695;28;20193;-76
2021/04/16 00:13:26;;;;;;;7.37;4.77;;;2.30;99.90;;;;;;5014622;28;20697;-74
2021/04/16 00:15:54;;;;;;;5.47;4.70;;;2.40;99.90;;;;;;5011350;28;20599;-79
2021/04/16 00:18:23;;;;;;;6.03;4.87;;;2.40;99.90;;;;;;5022713;28;20208;-81
2021/04/16 00:20:49;;;;;;;5.33;4.10;;;2.40;99.90;;;;;;5022987;28;20205;-77
2021/04/16 00:23:17;;;;;;;4.93;3.50;;;2.30;99.90;;;;;;5013108;28;20211;-77
2021/04/16 00:25:43;;;;;;;4.97;3.47;;;2.30;99.90;;;;;;5030349;28;20203;-81
2021/04/16 00:28:11;;;;;;;4.77;3.40;;;2.30;99.90;;;;;;5016726;28;20228;-75
2021/04/16 00:30:41;;;;;;;3.90;3.40;;;2.20;99.90;;;;;;5020386;28;20228;-76
2021/04/16 00:33:08;;;;;;;4.07;3.00;;;2.20;99.90;;;;;;5012999;28;20220;-76
2021/04/16 00:35:35;;;;;;;5.43;3.20;;;2.20;99.90;;;;;;5031040;28;20330;-77
2021/04/16 00:38:02;;;;;;;5.10;3.27;;;2.20;99.90;;;;;;5022372;28;20616;-78
2021/04/16 00:40:32;;;;;;;5.70;3.10;;;2.20;99.90;;;;;;5030863;28;20203;-79
2021/04/16 00:43:01;;;;;;;4.60;3.10;;;2.20;99.90;;;;;;5014822;28;20994;-76
2021/04/16 00:45:29;;;;;;;4.87;3.20;;;2.10;99.90;;;;;;5030549;28;20207;-69
2021/04/16 00:47:58;;;;;;;5.23;3.37;;;2.00;99.90;;;;;;5028944;28;20224;-70
2021/04/16 00:50:28;;;;;;;3.50;3.20;;;1.90;99.90;;;;;;5010591;28;20201;-79
2021/04/16 00:52:55;;;;;;;5.17;3.37;;;1.80;99.90;;;;;;5017967;28;20201;-72
2021/04/16 00:55:22;;;;;;;4.53;3.43;;;1.70;99.90;;;;;;5028706;28;20207;-75
2021/04/16 00:57:50;;;;;;;4.17;3.37;;;1.60;99.90;;;;;;5036380;28;20212;-78
2021/04/16 01:00:18;;;;;;;5.50;3.13;;;1.50;99.90;;;;;;5011240;28;20201;-79
2021/04/16 01:02:44;;;;;;;5.67;3.83;;;1.40;99.90;;;;;;5020952;28;20211;-80
2021/04/16 01:05:12;;;;;;;4.80;3.30;;;1.30;99.90;;;;;;5027154;28;20203;-74
2021/04/16 01:07:39;;;;;;;4.70;3.50;;;1.20;99.90;;;;;;5043083;28;20925;-74
2021/04/16 01:10:07;;;;;;;3.80;3.40;;;1.20;99.90;;;;;;5036927;28;20205;-72
2021/04/16 01:12:34;;;;;;;5.60;3.67;;;1.10;99.90;;;;;;5025004;28;20611;-75
2021/04/16 01:15:15;;;;;;;4.37;3.60;;;1.00;99.90;;;;;;5011364;28;20204;-79
2021/04/16 01:17:43;;;;;;;6.57;3.83;;;1.00;99.90;;;;;;5019873;28;20223;-67
2021/04/16 01:20:13;;;;;;;5.07;3.70;;;0.90;99.90;;;;;;5016794;28;20699;-77
2021/04/16 01:22:47;;;;;;;3.83;3.43;;;0.90;99.90;;;;;;5017849;28;20287;-70
2021/04/16 01:25:15;;;;;;;4.73;3.60;;;0.90;99.90;;;;;;5028928;28;20207;-77
2021/04/16 01:27:42;;;;;;;4.87;3.77;;;0.90;99.90;;;;;;5021038;28;20200;-78
2021/04/16 01:30:13;;;;;;;5.83;3.73;;;0.90;99.90;;;;;;5017723;28;20650;-80
2021/04/16 01:32:40;;;;;;;3.83;3.40;;;1.00;99.90;;;;;;5015008;28;20196;-74
2021/04/16 01:35:09;;;;;;;4.17;3.77;;;1.00;99.90;;;;;;5016817;28;20259;-75
2021/04/16 01:37:36;;;;;;;4.60;3.50;;;1.00;99.90;;;;;;5016362;28;20189;-75
2021/04/16 01:40:05;;;;;;;4.77;3.60;;;0.90;99.90;;;;;;5012854;28;20208;-70
2021/04/16 01:42:33;;;;;;;4.47;3.33;;;0.90;99.90;;;;;;5015476;28;20196;-77
2021/04/16 01:44:59;;;;;;;5.47;3.57;;;0.90;99.90;;;;;;5010565;28;20236;-71
2021/04/16 01:47:26;;;;;;;4.60;3.20;;;0.80;99.90;;;;;;5015007;28;20223;-72
2021/04/16 01:49:54;;;;;;;4.00;3.50;;;0.80;99.90;;;;;;5018388;28;20212;-65
2021/04/16 01:52:22;;;;;;;7.27;4.10;;;0.80;99.90;;;;;;5017539;28;20254;-74
2021/04/16 01:54:51;;;;;;;4.70;3.80;;;0.90;99.90;;;;;;5021070;28;20220;-78
2021/04/16 01:57:21;;;;;;;7.77;4.27;;;0.90;99.90;;;;;;5025882;28;20262;-74
2021/04/16 01:59:50;;;;;;;7.00;3.90;;;0.90;99.90;;;;;;5009668;28;20197;-70
2021/04/16 02:02:19;;;;;;;4.73;3.63;;;0.90;99.90;;;;;;5025636;28;20200;-75
2021/04/16 02:04:46;;;;;;;3.83;3.37;;;0.90;99.90;;;;;;5021683;28;20251;-73
2021/04/16 02:07:12;;;;;;;3.70;3.07;;;0.90;99.90;;;;;;5022158;28;20235;-70
2021/04/16 02:09:39;;;;;;;3.90;3.53;;;0.80;99.90;;;;;;5019802;28;20232;-75
2021/04/16 02:12:08;;;;;;;4.63;3.33;;;0.80;99.90;;;;;;5014701;28;20210;-72
2021/04/16 02:14:34;;;;;;;4.60;3.20;;;0.70;99.90;;;;;;5017214;28;20291;-79
2021/04/16 02:17:04;;;;;;;3.63;3.17;;;0.70;99.90;;;;;;5022649;28;20219;-72
2021/04/16 02:19:31;;;;;;;6.50;3.57;;;0.60;99.90;;;;;;5026722;28;20212;-77
2021/04/16 02:21:57;;;;;;;4.57;3.50;;;0.60;99.90;;;;;;5019876;28;20200;-75
2021/04/16 02:24:24;;;;;;;4.93;3.97;;;0.60;99.90;;;;;;5019971;28;20235;-79
2021/04/16 02:26:52;;;;;;;4.77;3.83;;;0.50;99.90;;;;;;5018531;28;20205;-77
2021/04/16 02:29:21;;;;;;;4.77;3.90;;;0.50;99.90;;;;;;5027838;28;20227;-78
2021/04/16 02:31:48;;;;;;;6.10;4.07;;;0.60;99.90;;;;;;5019236;28;20196;-75
2021/04/16 02:34:18;;;;;;;4.77;3.80;;;0.50;99.90;;;;;;5021156;28;20196;-70
2021/04/16 02:36:45;;;;;;;8.83;5.97;;;0.50;99.90;;;;;;5018198;28;20227;-66
2021/04/16 02:39:15;;;;;;;4.67;4.00;;;0.40;99.90;;;;;;5021457;28;20201;-77
2021/04/16 02:41:41;;;;;;;4.73;3.80;;;0.30;99.90;;;;;;5027013;28;20947;-79
2021/04/16 02:44:08;;;;;;;4.70;3.70;;;0.30;99.90;;;;;;5021188;28;20268;-75
2021/04/16 02:46:35;;;;;;;5.80;4.43;;;0.20;99.90;;;;;;5013321;28;20203;-77
2021/04/16 02:49:01;;;;;;;5.63;3.80;;;0.10;99.90;;;;;;5020849;28;20227;-78
2021/04/16 02:51:29;;;;;;;4.10;3.40;;;0.10;99.90;;;;;;5024586;28;20211;-78
2021/04/16 02:53:56;;;;;;;4.40;3.83;;;0.00;99.90;;;;;;5025378;28;20196;-81
2021/04/16 02:56:24;;;;;;;4.70;3.97;;;0.00;99.90;;;;;;5023954;28;20201;-82
2021/04/16 02:58:51;;;;;;;5.83;4.27;;;-0.10;99.90;;;;;;5024861;28;20208;-70
2021/04/16 03:01:17;;;;;;;4.00;3.60;;;-0.10;99.90;;;;;;5022633;28;20200;-66
2021/04/16 03:03:44;;;;;;;5.93;4.00;;;-0.10;99.90;;;;;;5020092;28;20197;-66
2021/04/16 03:06:10;;;;;;;5.17;4.33;;;-0.20;99.90;;;;;;5021776;28;20279;-73
2021/04/16 03:08:38;;;;;;;5.93;3.87;;;-0.20;99.90;;;;;;5021905;28;20247;-73
2021/04/16 03:11:06;;;;;;;5.03;4.10;;;-0.30;99.90;;;;;;5022623;28;20207;-72
2021/04/16 03:13:33;;;;;;;4.93;3.70;;;-0.30;99.90;;;;;;5023002;28;20665;-75
2021/04/16 03:15:59;;;;;;;5.93;3.67;;;-0.30;99.90;;;;;;5022708;28;20196;-78
2021/04/16 03:18:27;;;;;;;5.00;3.90;;;-0.30;99.90;;;;;;5021300;28;20200;-77
2021/04/16 03:20:54;;;;;;;4.90;4.03;;;-0.30;99.90;;;;;;5020492;28;20193;-69
2021/04/16 03:23:20;;;;;;;4.93;3.83;;;-0.30;99.90;;;;;;5027576;28;20431;-79
2021/04/16 03:25:48;;;;;;;4.63;3.60;;;-0.30;99.90;;;;;;5020817;28;20208;-71
2021/04/16 03:28:14;;;;;;;4.90;3.80;;;-0.40;99.90;;;;;;5019825;28;20233;-70
2021/04/16 03:30:41;;;;;;;4.00;3.47;;;-0.40;99.90;;;;;;5014522;28;20297;-77
2021/04/16 03:33:08;;;;;;;4.80;3.97;;;-0.40;99.90;;;;;;5018553;28;20256;-73
2021/04/16 03:35:34;;;;;;;4.53;3.43;;;-0.40;99.90;;;;;;5018211;28;20193;-82
2021/04/16 03:38:01;;;;;;;4.50;3.60;;;-0.40;99.90;;;;;;5016061;28;20213;-72
2021/04/16 03:40:29;;;;;;;6.03;4.03;;;-0.40;99.90;;;;;;5018189;28;20203;-81
2021/04/16 03:42:57;;;;;;;4.30;3.37;;;-0.40;99.90;;;;;;5019577;28;20208;-76
2021/04/16 03:45:24;;;;;;;5.87;4.03;;;-0.40;99.90;;;;;;5020349;28;20201;-79
2021/04/16 03:47:52;;;;;;;6.17;4.40;;;-0.40;99.90;;;;;;5011493;28;20263;-68
2021/04/16 03:50:20;;;;;;;5.13;3.93;;;-0.40;99.90;;;;;;5036594;28;20200;-74
2021/04/16 03:52:47;;;;;;;7.70;4.07;;;-0.30;99.90;;;;;;5020316;28;20201;-68
2021/04/16 03:55:15;;;;;;;6.33;4.03;;;-0.30;99.90;;;;;;5017745;28;20205;-74
2021/04/16 03:57:41;;;;;;;6.63;3.70;;;-0.40;99.90;;;;;;5016993;28;20286;-79
2021/04/16 04:00:11;;;;;;;5.67;3.83;;;-0.40;99.90;;;;;;5016806;28;20205;-76
2021/04/16 04:02:38;;;;;;;4.83;3.70;;;-0.40;99.90;;;;;;5018019;28;20197;-78
2021/04/16 04:05:06;;;;;;;4.07;3.60;;;-0.50;99.90;;;;;;5016818;28;20197;-74
2021/04/16 04:07:32;;;;;;;5.90;4.23;;;-0.50;99.90;;;;;;5019455;28;20338;-77
2021/04/16 04:09:59;;;;;;;4.90;4.23;;;-0.60;99.90;;;;;;5017487;28;20228;-72
2021/04/16 04:12:25;;;;;;;6.30;4.60;;;-0.60;99.90;;;;;;5016878;28;20197;-76
2021/04/16 04:14:52;;;;;;;5.10;4.20;;;-0.70;99.90;;;;;;5022302;28;20248;-75
2021/04/16 04:17:26;;;;;;;6.87;4.60;;;-0.70;99.90;;;;;;5030899;28;20302;-72
2021/04/16 04:19:53;;;;;;;6.73;5.00;;;-0.70;99.90;;;;;;5021858;28;20816;-72
2021/04/16 04:22:20;;;;;;;5.97;4.63;;;-0.70;99.90;;;;;;5017154;28;20567;-72
2021/04/16 04:24:46;;;;;;;6.30;5.07;;;-0.70;99.90;;;;;;5011664;28;20201;-70
2021/04/16 04:27:13;;;;;;;6.30;4.93;;;-0.70;99.90;;;;;;5011145;28;20204;-69
2021/04/16 04:29:40;;;;;;;7.67;5.73;;;-0.70;99.90;;;;;;5020763;28;20255;-72
2021/04/16 04:32:07;;;;;;;8.00;5.87;;;-0.70;99.90;;;;;;5019799;28;20197;-73
2021/04/16 04:34:35;;;;;;;6.87;6.00;;;-0.60;99.90;;;;;;5029857;28;20628;-77
2021/04/16 04:37:04;;;;;;;7.20;6.40;;;-0.60;99.90;;;;;;5025637;28;20283;-76
2021/04/16 04:39:33;;;;;;;8.67;7.47;;;-0.60;99.90;;;;;;5015808;28;20208;-76
2021/04/16 04:42:01;;;;;;;10.33;8.50;;;-0.60;99.90;;;;;;5029885;28;20208;-77
2021/04/16 04:44:28;;;;;;;10.47;8.47;;;-0.60;99.90;;;;;;5021785;28;20208;-69
2021/04/16 04:46:54;;;;;;;10.67;9.33;;;-0.60;99.90;;;;;;5027572;28;20197;-75
2021/04/16 04:49:21;;;;;;;11.03;9.83;;;-0.50;99.90;;;;;;5025542;28;20225;-69
2021/04/16 04:51:50;;;;;;;11.80;10.60;;;-0.50;99.90;;;;;;5028039;28;20200;-68
2021/04/16 04:54:18;;;;;;;12.33;11.03;;;-0.40;99.90;;;;;;5015104;28;20595;-66
2021/04/16 04:56:44;;;;;;;12.47;11.17;;;-0.40;99.90;;;;;;5027730;28;20302;-68
2021/04/16 04:59:11;;;;;;;13.03;11.37;;;-0.30;99.90;;;;;;5023898;28;20205;-85
2021/04/16 05:01:37;;;;;;;13.70;11.87;;;-0.20;99.90;;;;;;5022089;28;20193;-85
2021/04/16 05:04:06;;;;;;;14.60;12.10;;;-0.20;99.90;;;;;;5018508;28;20303;-83
2021/04/16 05:06:32;;;;;;;14.73;12.60;;;-0.10;99.90;;;;;;5030476;28;20211;-81
2021/04/16 05:09:00;;;;;;;15.63;12.70;;;0.00;99.90;;;;;;5029407;28;20220;-75
2021/04/16 05:11:26;;;;;;;14.80;12.33;;;0.10;99.90;;;;;;5027064;28;20204;-84
2021/04/16 05:13:53;;;;;;;15.73;13.83;;;0.20;99.90;;;;;;5022074;28;20258;-83
2021/04/16 05:16:19;;;;;;;16.57;13.17;;;0.30;99.90;;;;;;5027956;28;20347;-66
2021/04/16 05:18:48;;;;;;;16.13;13.10;;;0.40;99.90;;;;;;5025036;28;20205;-83
2021/04/16 05:21:15;;;;;;;16.27;12.70;;;0.40;99.90;;;;;;5032434;28;20238;-83
2021/04/16 05:23:41;;;;;;;16.53;13.67;;;0.60;99.90;;;;;;5029677;28;20204;-80
2021/04/16 05:26:08;;;;;;;17.10;14.33;;;0.60;99.90;;;;;;5023100;28;20200;-80
2021/04/16 05:28:35;;;;;;;16.20;14.50;;;0.70;99.90;;;;;;5022647;28;20217;-84
2021/04/16 05:31:01;;;;;;;18.17;13.63;;;0.80;99.90;;;;;;5012646;28;20233;-83
2021/04/16 05:33:28;;;;;;;16.67;13.43;;;1.00;99.90;;;;;;5023742;28;20192;-80
2021/04/16 05:35:54;;;;;;;16.20;14.40;;;1.10;99.90;;;;;;5028593;28;20897;-82
2021/04/16 05:38:21;;;;;;;22.27;14.00;;;1.40;99.90;;;;;;5029863;28;20219;-76
2021/04/16 05:40:47;;;;;;;18.77;12.93;;;2.30;99.90;;;;;;5030180;28;20200;-83
2021/04/16 05:43:15;;;;;;;13.43;10.57;;;3.30;99.90;;;;;;5026988;28;20204;-83
2021/04/16 05:45:41;;;;;;;8.17;7.37;;;4.30;99.90;;;;;;5011777;28;20252;-70
2021/04/16 05:48:08;;;;;;;6.67;5.90;;;5.20;99.90;;;;;;5021866;28;20534;-83
2021/04/16 05:50:34;;;;;;;8.10;5.13;;;6.10;99.90;;;;;;5028516;28;20196;-83
2021/04/16 05:53:03;;;;;;;6.53;5.03;;;6.80;99.90;;;;;;5026073;28;20235;-84
2021/04/16 05:55:29;;;;;;;5.00;4.57;;;7.40;99.90;;;;;;5021278;28;20822;-77
2021/04/16 05:57:56;;;;;;;5.23;4.10;;;8.00;99.90;;;;;;5026517;28;20213;-82
2021/04/16 06:00:24;;;;;;;6.73;4.70;;;8.50;99.90;;;;;;5031137;28;20204;-84
2021/04/16 06:02:51;;;;;;;6.33;4.40;;;9.10;99.90;;;;;;5035181;28;20282;-85
2021/04/16 06:05:20;;;;;;;5.03;4.47;;;9.50;99.90;;;;;;5025787;28;20330;-85
2021/04/16 06:07:47;;;;;;;4.73;4.30;;;9.90;99.90;;;;;;5030056;28;20215;-85
2021/04/16 06:10:16;;;;;;;4.83;4.20;;;10.40;99.90;;;;;;5035773;28;20697;-85
2021/04/16 06:12:43;;;;;;;4.60;4.10;;;10.70;99.90;;;;;;5027404;28;20230;-85
2021/04/16 06:15:13;;;;;;;5.40;3.70;;;11.00;99.90;;;;;;5019794;28;20203;-85
2021/04/16 06:17:40;;;;;;;6.20;4.47;;;11.00;99.90;;;;;;5026702;28;20195;-84
2021/04/16 06:20:09;;;;;;;6.33;4.80;;;11.30;99.90;;;;;;5028851;28;20208;-84
2021/04/16 06:22:36;;;;;;;6.00;4.53;;;11.60;99.90;;;;;;5033911;28;20192;-84
2021/04/16 06:25:05;;;;;;;7.10;4.43;;;11.80;99.90;;;;;;5016859;28;20615;-84
2021/04/16 06:27:31;;;;;;;5.27;4.67;;;11.80;99.90;;;;;;5026775;28;20196;-83
2021/04/16 06:29:58;;;;;;;6.00;4.77;;;11.90;99.90;;;;;;5023904;28;20232;-79
2021/04/16 06:32:25;;;;;;;5.10;4.60;;;12.00;99.90;;;;;;5016656;28;20193;-76
2021/04/16 06:34:52;;;;;;;5.30;4.63;;;12.20;99.90;;;;;;5015872;28;20239;-76
2021/04/16 06:37:19;;;;;;;6.60;5.17;;;12.30;99.90;;;;;;5014819;28;20263;-66
2021/04/16 06:39:46;;;;;;;5.00;4.53;;;12.10;99.90;;;;;;5019607;28;20200;-75
2021/04/16 06:42:17;;;;;;;6.63;5.20;;;11.90;99.90;;;;;;5015832;28;20231;-76
2021/04/16 06:44:46;;;;;;;4.90;4.40;;;11.60;99.90;;;;;;5019615;28;20220;-80
2021/04/16 06:47:19;;;;;;;7.27;5.20;;;11.50;99.90;;;;;;5017547;28;20203;-72
2021/04/16 06:49:45;;;;;;;4.93;4.47;;;11.40;99.90;;;;;;5021171;28;20269;-66
2021/04/16 06:52:17;;;;;;;7.23;4.80;;;11.40;99.90;;;;;;5013978;28;20201;-63
2021/04/16 06:54:59;;;;;;;4.67;4.17;;;11.70;99.90;;;;;;5012771;28;20200;-64
2021/04/16 06:57:37;;;;;;;5.20;4.70;;;12.00;99.90;;;;;;5014927;28;20212;-76
2021/04/16 07:00:20;;;;;;;5.40;4.83;;;12.10;99.90;;;;;;5016383;28;20994;-67
2021/04/16 07:02:51;;;;;;;5.43;4.30;;;12.00;99.90;;;;;;5016587;28;20205;-65
2021/04/16 07:05:31;;;;;;;4.87;4.27;;;12.10;99.90;;;;;;5015433;28;20201;-65
2021/04/16 07:07:59;;;;;;;5.10;4.00;;;12.00;99.90;;;;;;5017638;28;20205;-64
2021/04/16 07:10:28;;;;;;;6.33;4.27;;;11.90;99.90;;;;;;5016873;28;20318;-67
2021/04/16 07:12:57;;;;;;;4.23;3.83;;;12.10;99.90;;;;;;5016120;28;20255;-66
2021/04/16 07:15:34;;;;;;;5.00;4.27;;;12.60;99.90;;;;;;5014331;28;20208;-68
2021/04/16 07:18:02;;;;;;;6.43;4.10;;;12.50;99.90;;;;;;5018376;28;20636;-66
2021/04/16 07:20:28;;;;;;;3.87;3.50;;;12.50;99.90;;;;;;5013895;28;20206;-67
2021/04/16 07:22:56;;;;;;;5.13;3.93;;;12.80;99.90;;;;;;5021121;28;20197;-70
2021/04/16 07:25:37;;;;;;;5.07;3.70;;;13.00;99.90;;;;;;5015123;28;20672;-77
2021/04/16 07:28:06;;;;;;;17.35;5.40;;;12.70;99.90;;;;;;5024792;28;20776;-67
2021/04/16 07:30:39;;;;;;;3.60;3.30;;;12.90;99.90;;;;;;5031945;28;20246;-73
2021/04/16 07:33:25;;;;;;;3.60;3.30;;;13.20;99.90;;;;;;5029434;28;20551;-81
2021/04/16 07:35:53;;;;;;;5.83;3.77;;;13.10;99.90;;;;;;5030781;28;20193;-77
2021/04/16 07:38:28;;;;;;;3.80;3.50;;;13.10;99.90;;;;;;5031608;28;20208;-65
2021/04/16 07:41:16;;;;;;;4.43;3.53;;;13.00;99.90;;;;;;5029728;28;20283;-68
2021/04/16 07:43:46;;;;;;;4.93;3.37;;;13.10;99.90;;;;;;5043211;28;20250;-69
2021/04/16 07:46:30;;;;;;;3.80;3.40;;;13.30;99.90;;;;;;5029559;28;20213;-66
2021/04/16 07:49:23;;;;;;;4.93;3.70;;;13.10;99.90;;;;;;5030257;28;20274;-70
2021/04/16 07:51:52;;;;;;;7.80;3.83;;;13.30;99.90;;;;;;5030897;28;20196;-78
2021/04/16 07:54:21;;;;;;;5.23;3.70;;;13.60;99.90;;;;;;5028957;28;20206;-75
2021/04/16 07:57:02;;;;;;;4.80;3.60;;;13.70;99.90;;;;;;5031679;28;20602;-82
2021/04/16 07:59:28;;;;;;;5.03;3.70;;;13.90;99.90;;;;;;5017056;28;20316;-74
2021/04/16 08:01:55;;;;;;;4.13;3.47;;;14.10;99.90;;;;;;5028179;28;20201;-74
2021/04/16 08:04:34;;;;;;;5.33;3.70;;;14.40;99.90;;;;;;5029148;28;20212;-71
2021/04/16 08:07:16;;;;;;;5.13;3.57;;;14.70;99.90;;;;;;5030526;28;20203;-69
2021/04/16 08:09:43;;;;;;;4.87;3.43;;;15.00;99.90;;;;;;5018466;28;20221;-77
2021/04/16 08:12:17;;;;;;;4.10;3.40;;;14.90;99.90;;;;;;5051438;28;20258;-75
2021/04/16 08:14:45;;;;;;;4.87;3.40;;;15.10;99.90;;;;;;5036639;28;20265;-77
2021/04/16 08:17:39;;;;;;;3.90;3.20;;;14.90;99.90;;;;;;5032711;28;20671;-69
2021/04/16 08:20:25;;;;;;;3.60;3.10;;;14.90;99.90;;;;;;5028482;28;20242;-78
2021/04/16 08:22:53;;;;;;;4.60;2.90;;;15.10;99.90;;;;;;5038577;28;20191;-79
2021/04/16 08:25:31;;;;;;;5.00;3.00;;;15.00;99.90;;;;;;5045887;28;20207;-64
2021/04/16 08:28:02;;;;;;;4.07;3.13;;;14.80;99.90;;;;;;5028346;28;20192;-69
2021/04/16 08:30:49;;;;;;;4.60;3.67;;;14.60;99.90;;;;;;5029690;28;20240;-77
2021/04/16 08:33:29;;;;;;;3.70;3.40;;;14.40;99.90;;;;;;5030135;28;20196;-80
2021/04/16 08:36:01;;;;;;;3.20;2.93;;;14.30;99.90;;;;;;5029559;28;20279;-68
2021/04/16 08:38:33;;;;;;;3.37;2.60;;;14.90;99.90;;;;;;5030424;28;20222;-72
2021/04/16 08:41:02;;;;;;;6.27;3.30;;;15.40;99.90;;;;;;5023804;28;20242;-80
2021/04/16 08:43:39;;;;;;;3.40;2.83;;;15.90;99.90;;;;;;5030682;28;20219;-79
2021/04/16 08:46:17;;;;;;;3.83;2.90;;;16.30;99.90;;;;;;5029729;28;20726;-74
2021/04/16 08:48:47;;;;;;;3.83;2.93;;;16.70;99.90;;;;;;5030517;28;20677;-84
2021/04/16 08:51:15;;;;;;;4.73;2.87;;;16.40;99.90;;;;;;5030641;28;20719;-87
2021/04/16 08:53:43;;;;;;;4.90;3.60;;;16.40;99.90;;;;;;5031516;28;20201;-78
2021/04/16 08:56:16;;;;;;;3.60;3.10;;;16.70;99.90;;;;;;5030240;28;20196;-74
2021/04/16 08:58:44;;;;;;;4.67;3.27;;;16.70;99.90;;;;;;5030331;28;20218;-78
2021/04/16 09:01:14;;;;;;;3.83;3.13;;;16.20;99.90;;;;;;5030851;28;20223;-74
2021/04/16 09:03:47;;;;;;;4.23;2.93;;;16.00;99.90;;;;;;5021183;28;20208;-80
2021/04/16 09:06:25;;;;;;;3.70;3.07;;;16.60;99.90;;;;;;5021081;28;20731;-79
2021/04/16 09:08:53;;;;;;;5.63;3.00;;;16.70;99.90;;;;;;5030974;28;20216;-71
2021/04/16 09:11:51;;;;;;;3.30;3.00;;;17.10;99.90;;;;;;5030544;28;20204;-80
2021/04/16 09:14:51;;;;;;;3.30;3.00;;;17.50;99.90;;;;;;5030592;28;20258;-71
2021/04/16 09:17:20;;;;;;;3.10;2.80;;;17.70;99.90;;;;;;5027703;28;20208;-76
2021/04/16 09:20:01;;;;;;;4.00;3.00;;;18.20;99.90;;;;;;5034785;28;20687;-79
2021/04/16 09:22:49;;;;;;;4.67;2.87;;;18.70;99.90;;;;;;5036994;28;20196;-71
2021/04/16 09:25:40;;;;;;;4.23;3.17;;;19.10;99.90;;;;;;5028413;28;20200;-74
2021/04/16 09:28:48;;;;;;;3.13;2.83;;;18.70;99.90;;;;;;5014670;28;20188;-79
2021/04/16 09:31:50;;;;;;;3.90;2.97;;;18.00;99.90;;;;;;5016034;28;20232;-66
2021/04/16 09:34:21;;;;;;;3.63;2.90;;;17.10;99.90;;;;;;5027448;28;20679;-77
2021/04/16 09:36:50;;;;;;;4.73;3.33;;;17.40;99.90;;;;;;5030277;28;20219;-82
2021/04/16 09:39:33;;;;;;;3.07;2.77;;;17.50;99.90;;;;;;5029564;28;20203;-78
2021/04/16 09:42:00;;;;;;;3.60;2.90;;;17.70;99.90;;;;;;5026578;28;20292;-80
2021/04/16 09:44:44;;;;;;;3.93;2.93;;;17.60;99.90;;;;;;5029615;28;20261;-80
2021/04/16 09:47:10;;;;;;;3.40;3.10;;;17.60;99.90;;;;;;5030640;28;20200;-84
2021/04/16 09:49:40;;;;;;;2.87;2.67;;;17.50;99.90;;;;;;5030610;28;20226;-79
2021/04/16 09:52:45;;;;;;;3.40;3.10;;;17.30;99.90;;;;;;5019849;28;20196;-85
2021/04/16 09:55:44;;;;;;;4.63;3.17;;;17.20;99.90;;;;;;5030101;28;20231;-82
2021/04/16 09:58:11;;;;;;;4.80;3.00;;;17.10;99.90;;;;;;5044866;28;20254;-76
2021/04/16 10:01:03;;;;;;;3.30;3.00;;;17.00;99.90;;;;;;5040476;28;20214;-74
2021/04/16 10:03:43;;;;;;;4.40;2.87;;;17.00;99.90;;;;;;5029580;28;20246;-71
2021/04/16 10:06:22;;;;;;;3.63;3.10;;;17.30;99.90;;;;;;5031332;28;20674;-73
2021/04/16 10:09:04;;;;;;;3.30;3.00;;;17.60;99.90;;;;;;5030965;28;20218;-67
2021/04/16 10:11:32;;;;;;;3.17;2.87;;;17.70;99.90;;;;;;5030440;28;20192;-68
2021/04/16 10:14:17;;;;;;;4.10;3.30;;;17.70;99.90;;;;;;5029109;28;20201;-76
2021/04/16 10:16:45;;;;;;;3.20;2.67;;;18.10;99.90;;;;;;5028201;28;20196;-66
2021/04/16 10:19:14;;;;;;;2.70;2.50;;;18.50;99.90;;;;;;5026767;28;20215;-72
2021/04/16 10:21:42;;;;;;;5.63;2.73;;;19.00;99.90;;;;;;5026058;28;20653;-80
2021/04/16 17:31:39;;;;;;;5.40;2.30;;;9.90;99.90;;;;;;5167235;22;20308;-62
2021/04/16 17:34:05;;;;;;;5.70;2.60;;;9.80;99.90;;;;;;4989465;28;20193;-62
2021/04/16 17:36:32;;;;;;;4.90;2.03;;;9.70;99.90;;;;;;4992423;28;20206;-61
2021/04/16 17:38:58;;;;;;;6.30;2.50;;;9.60;99.90;;;;;;5007842;28;20247;-63
2021/04/16 17:41:31;;;;;;;5.40;2.60;;;9.50;99.90;;;;;;4988240;28;20206;-61
2021/04/16 17:43:58;;;;;;;4.67;2.03;;;9.50;99.90;;;;;;4986217;28;20205;-63
2021/04/16 17:46:26;;;;;;;4.10;2.60;;;9.40;99.90;;;;;;4988596;28;20240;-62
2021/04/16 17:48:53;;;;;;;5.70;2.87;;;9.30;99.90;;;;;;4989971;28;20198;-63
2021/04/16 17:51:22;;;;;;;5.63;2.70;;;9.30;99.90;;;;;;4991573;28;20197;-63
2021/04/16 17:53:50;;;;;;;7.23;2.37;;;9.20;99.90;;;;;;4991725;28;20249;-62
2021/04/16 17:56:17;;;;;;;7.70;2.40;;;9.10;99.90;;;;;;4991317;28;20193;-62
2021/04/16 17:58:44;;;;;;;6.70;2.93;;;9.00;99.90;;;;;;4991421;28;20743;-62
2021/04/16 18:01:12;;;;;;;7.20;3.13;;;9.00;99.90;;;;;;4991533;28;20212;-63
2021/04/16 18:03:39;;;;;;;6.10;3.10;;;8.90;99.90;;;;;;4991205;28;20330;-63
2021/04/16 18:06:12;;;;;;;5.57;2.73;;;8.90;99.90;;;;;;4991400;28;20624;-61
2021/04/16 18:08:39;;;;;;;7.03;3.10;;;8.80;99.90;;;;;;4991568;28;20205;-65
2021/04/16 18:11:07;;;;;;;5.87;2.80;;;8.80;99.90;;;;;;4986967;28;20236;-62
2021/04/16 18:13:35;;;;;;;6.80;2.63;;;8.70;99.90;;;;;;4990987;28;20252;-61
2021/04/16 18:16:02;;;;;;;7.83;2.93;;;8.60;99.90;;;;;;4991518;28;20201;-62
2021/04/16 18:18:28;;;;;;;9.67;3.40;;;8.60;99.90;;;;;;4991243;28;20198;-62
2021/04/16 18:21:09;;;;;;;6.77;2.67;;;8.50;99.90;;;;;;4987423;28;20198;-63
2021/04/16 18:23:39;;;;;;;5.03;2.40;;;8.40;99.90;;;;;;4990855;28;20190;-61
2021/04/16 18:26:07;;;;;;;7.07;2.80;;;8.40;99.90;;;;;;4990854;28;20194;-62
2021/04/16 18:28:34;;;;;;;4.83;2.43;;;8.30;99.90;;;;;;4990831;28;20578;-69
2021/04/16 18:31:03;;;;;;;5.33;2.60;;;8.20;99.90;;;;;;4990683;28;20237;-65
2021/04/16 18:33:30;;;;;;;6.47;2.80;;;8.10;99.90;;;;;;4990850;28;20197;-64
2021/04/16 18:35:59;;;;;;;6.43;2.70;;;8.10;99.90;;;;;;4990949;28;20321;-65
2021/04/16 18:38:30;;;;;;;5.10;2.57;;;8.00;99.90;;;;;;4990708;28;20194;-63
2021/04/16 18:40:59;;;;;;;6.07;3.03;;;7.90;99.90;;;;;;4989711;28;20249;-65
2021/04/16 18:43:26;;;;;;;5.17;2.43;;;7.90;99.90;;;;;;4990827;28;20705;-65
2021/04/16 18:45:54;;;;;;;5.43;2.40;;;7.80;99.90;;;;;;4990769;28;20194;-62
2021/04/16 18:48:21;;;;;;;4.30;2.43;;;7.70;99.90;;;;;;4990098;28;20527;-62
2021/04/16 18:50:50;;;;;;;5.13;2.30;;;7.60;99.90;;;;;;4990133;28;20226;-61
2021/04/16 18:53:35;;;;;;;5.03;2.63;;;7.60;99.90;;;;;;4990270;28;20201;-61
2021/04/16 18:56:02;;;;;;;9.57;2.80;;;7.50;99.90;;;;;;4989037;28;20194;-68
2021/04/16 18:58:31;;;;;;;5.90;2.10;;;7.40;99.90;;;;;;4990709;28;20221;-63
2021/04/16 19:01:00;;;;;;;4.93;2.53;;;7.40;99.90;;;;;;4990493;28;20202;-68
2021/04/16 19:03:26;;;;;;;4.23;2.07;;;7.30;99.90;;;;;;4990166;28;20194;-65
2021/04/16 19:05:53;;;;;;;4.30;2.00;;;7.30;99.90;;;;;;4990502;28;20194;-69
2021/04/16 19:08:20;;;;;;;6.20;2.50;;;7.30;99.90;;;;;;4990199;28;20200;-67
2021/04/16 19:10:50;;;;;;;7.27;3.23;;;7.20;99.90;;;;;;4989189;28;20220;-62
2021/04/16 19:13:19;;;;;;;5.13;1.93;;;7.20;99.90;;;;;;4989954;28;20202;-63
2021/04/16 19:15:46;;;;;;;5.70;2.20;;;7.10;99.90;;;;;;4990007;28;20196;-64
2021/04/16 19:18:16;;;;;;;4.70;2.20;;;7.00;99.90;;;;;;4989913;28;20202;-68
2021/04/16 19:20:45;;;;;;;4.27;2.20;;;7.00;99.90;;;;;;4990186;28;20205;-67
2021/04/16 19:23:20;;;;;;;4.50;2.10;;;7.00;99.90;;;;;;4989747;28;20651;-64
2021/04/16 19:25:47;;;;;;;4.87;2.33;;;7.00;99.90;;;;;;4992810;28;20220;-62
2021/04/16 19:28:16;;;;;;;3.83;2.47;;;6.90;99.90;;;;;;4989955;28;20197;-64
2021/04/16 19:30:45;;;;;;;3.90;2.47;;;6.80;99.90;;;;;;4986200;28;20229;-69
2021/04/16 19:33:13;;;;;;;6.03;2.57;;;6.80;99.90;;;;;;4988996;28;20206;-65
2021/04/16 19:35:40;;;;;;;6.97;2.50;;;6.70;99.90;;;;;;4989539;28;20217;-67
2021/04/16 19:38:10;;;;;;;4.50;2.20;;;6.70;99.90;;;;;;4990085;28;20204;-61
2021/04/16 19:40:40;;;;;;;4.93;3.07;;;6.60;99.90;;;;;;4986111;28;20205;-65
2021/04/16 19:43:08;;;;;;;7.07;2.37;;;6.60;99.90;;;;;;4989327;28;20209;-67
2021/04/16 19:45:36;;;;;;;7.13;2.90;;;6.50;99.90;;;;;;4989554;28;20190;-61
2021/04/16 20:19:04;;;;;;;5.03;2.60;;;6.30;99.90;;;;;;4979234;28;20205;-69
2021/04/16 20:21:33;;;;;;;5.93;2.70;;;6.20;99.90;;;;;;4989633;28;20240;-66
2021/04/16 20:24:01;;;;;;;5.70;3.30;;;6.10;99.90;;;;;;4989750;28;20279;-66
2021/04/16 20:26:34;;;;;;;6.70;2.70;;;6.10;99.90;;;;;;5003590;28;20553;-66
2021/04/16 20:29:00;;;;;;;8.47;2.83;;;6.10;99.90;;;;;;5009033;28;20823;-67
2021/04/16 20:31:28;;;;;;;11.07;3.17;;;6.10;99.90;;;;;;4988988;28;20233;-61
2021/04/16 20:33:55;;;;;;;5.23;2.57;;;6.00;99.90;;;;;;4989553;28;20244;-66
2021/04/16 20:36:27;;;;;;;8.83;2.80;;;6.10;99.90;;;;;;4987434;28;20213;-64
2021/04/16 20:38:54;;;;;;;5.40;2.47;;;6.00;99.90;;;;;;4988614;28;20190;-67
2021/04/16 20:41:21;;;;;;;7.23;2.53;;;5.90;99.90;;;;;;4989914;28;20205;-67
2021/04/16 20:43:50;;;;;;;9.30;3.33;;;5.90;99.90;;;;;;4988763;28;20264;-66